Time,TemperatureF,DewpointF,PressureIn,WindDirection,WindDirectionDegrees,WindSpeedMPH,WindSpeedGustMPH,Humidity,HourlyPrecipIn,Conditions,Clouds,dailyrainin,SoftwareType,DateUTC
2013-09-22 07:55:00,47.5,39.3,29.70,SSE,156,0.0,0.0,73,0.00,,---,0.00,VWS V14.01,2013-09-22 13:55:00,
2013-09-22 08:00:00,47.7,39.8,29.70,SSE,156,0.0,0.0,74,0.00,,---,0.00,VWS V14.01,2013-09-22 14:00:00,
2013-09-22 08:05:00,47.8,40.0,29.70,SSE,156,0.0,0.0,74,0.00,,---,0.00,VWS V14.01,2013-09-22 14:05:00,
2013-09-22 08:10:00,48.2,40.0,29.70,SSE,156,0.0,0.0,73,0.00,,---,0.00,VWS V14.01,2013-09-22 14:10:00,
2013-09-22 08:15:00,48.2,40.0,29.70,SSE,156,0.0,0.0,73,0.00,,---,0.00,VWS V14.01,2013-09-22 14:15:00,
2013-09-22 08:20:00,48.2,40.0,29.70,SSE,156,0.0,0.0,73,0.00,,---,0.00,VWS V14.01,2013-09-22 14:20:00,
2013-09-22 08:25:00,48.2,40.0,29.70,SSE,156,0.0,0.0,73,0.00,,---,0.00,VWS V14.01,2013-09-22 14:25:00,
2013-09-22 08:30:00,48.4,40.1,29.70,SSE,156,0.0,0.0,73,0.00,,---,0.00,VWS V14.01,2013-09-22 14:30:00,
2013-09-22 08:35:00,48.4,40.1,29.70,SSE,156,0.0,0.0,73,0.00,,---,0.00,VWS V14.01,2013-09-22 14:35:00,
2013-09-22 08:40:00,48.4,40.1,29.70,SSE,156,0.0,0.0,73,0.00,,---,0.00,VWS V14.01,2013-09-22 14:40:00,
2013-09-22 08:45:00,48.6,40.3,29.70,SSE,156,0.0,0.0,73,0.00,,---,0.00,VWS V14.01,2013-09-22 14:45:00,
2013-09-22 08:50:00,48.6,40.3,29.70,SSE,156,0.0,0.0,73,0.00,,---,0.00,VWS V14.01,2013-09-22 14:50:00,
2013-09-22 08:55:00,48.6,40.7,29.70,SSE,156,0.0,0.0,74,0.00,,---,0.00,VWS V14.01,2013-09-22 14:55:00,
2013-09-22 09:00:00,48.7,40.8,29.70,SSE,156,0.0,0.0,74,0.00,,---,0.00,VWS V14.01,2013-09-22 15:00:00,
2013-09-22 09:05:00,48.9,41.0,29.70,SSE,156,0.0,0.0,74,0.00,,---,0.00,VWS V14.01,2013-09-22 15:05:00,
2013-09-22 09:10:00,48.9,41.0,29.70,SSE,156,0.0,0.0,74,0.00,,---,0.00,VWS V14.01,2013-09-22 15:10:00,
2013-09-22 09:15:00,49.1,41.2,29.70,SSE,156,0.0,0.0,74,0.00,,---,0.00,VWS V14.01,2013-09-22 15:15:00,
2013-09-22 09:20:00,49.1,41.2,29.70,SSE,156,0.0,0.0,74,0.00,,---,0.00,VWS V14.01,2013-09-22 15:20:00,
2013-09-22 09:25:00,49.3,41.4,29.70,SSE,156,0.0,0.0,74,0.00,,---,0.00,VWS V14.01,2013-09-22 15:25:00,
2013-09-22 09:30:00,49.3,41.4,29.70,SSE,156,0.0,0.0,74,0.00,,---,0.00,VWS V14.01,2013-09-22 15:30:00,
2013-09-22 09:35:00,49.1,41.2,29.70,SSE,156,0.0,0.0,74,0.00,,---,0.00,VWS V14.01,2013-09-22 15:35:00,
2013-09-22 09:40:00,49.1,41.2,29.70,SSE,156,0.0,0.0,74,0.00,,---,0.00,VWS V14.01,2013-09-22 15:40:00,
2013-09-22 09:45:00,49.3,41.4,29.70,SSE,156,0.0,0.0,74,0.00,,---,0.00,VWS V14.01,2013-09-22 15:45:00,
2013-09-22 09:50:00,49.3,41.4,29.70,SSE,156,0.0,0.0,74,0.00,,---,0.00,VWS V14.01,2013-09-22 15:50:00,
2013-09-22 09:55:00,49.3,41.4,29.70,SSE,156,0.0,0.0,74,0.00,,---,0.00,VWS V14.01,2013-09-22 15:55:00,
2013-09-22 10:00:00,49.5,41.5,29.70,SSE,156,0.0,0.0,74,0.00,,---,0.00,VWS V14.01,2013-09-22 16:00:00,
2013-09-22 10:05:00,49.6,41.7,29.70,SSE,156,0.0,0.0,74,0.00,,---,0.00,VWS V14.01,2013-09-22 16:05:00,
2013-09-22 10:10:00,49.8,41.9,29.70,SSE,156,0.0,0.0,74,0.00,,---,0.00,VWS V14.01,2013-09-22 16:10:00,
2013-09-22 10:15:00,50.2,42.2,29.70,SSE,156,0.0,0.0,74,0.00,,---,0.00,VWS V14.01,2013-09-22 16:15:00,
2013-09-22 10:20:00,50.4,42.4,29.73,SSE,156,0.0,0.0,74,0.00,,---,0.00,VWS V14.01,2013-09-22 16:20:00,
2013-09-22 10:25:00,50.4,42.4,29.73,SSE,156,0.0,0.0,74,0.04,,---,0.04,VWS V14.01,2013-09-22 16:25:00,
2013-09-22 10:30:00,50.4,42.4,29.73,SSE,156,0.0,0.0,74,0.04,,---,0.04,VWS V14.01,2013-09-22 16:30:00,
2013-09-22 10:35:00,50.4,42.4,29.73,SSE,156,0.0,0.0,74,0.04,,---,0.04,VWS V14.01,2013-09-22 16:35:00,
2013-09-22 10:40:00,50.4,42.4,29.73,SSE,156,0.0,0.0,74,0.04,,---,0.04,VWS V14.01,2013-09-22 16:40:00,
2013-09-22 10:45:00,50.5,42.6,29.73,SSE,156,0.0,0.0,74,0.04,,---,0.04,VWS V14.01,2013-09-22 16:45:00,
2013-09-22 10:50:00,50.7,42.8,29.73,SSE,156,0.0,0.0,74,0.04,,---,0.04,VWS V14.01,2013-09-22 16:50:00,
2013-09-22 10:55:00,50.9,42.9,29.73,SSE,156,0.0,0.0,74,0.04,,---,0.04,VWS V14.01,2013-09-22 16:55:00,
2013-09-22 11:00:00,51.1,43.1,29.73,SSE,156,0.0,0.0,74,0.04,,---,0.04,VWS V14.01,2013-09-22 17:00:00,
2013-09-22 11:05:00,51.3,43.3,29.73,SSE,156,0.0,0.0,74,0.04,,---,0.04,VWS V14.01,2013-09-22 17:05:00,
2013-09-22 11:10:00,51.4,43.4,29.73,SSE,156,0.0,0.0,74,0.04,,---,0.04,VWS V14.01,2013-09-22 17:10:00,
2013-09-22 11:15:00,51.4,43.4,29.73,SSE,156,0.0,0.0,74,0.04,,---,0.04,VWS V14.01,2013-09-22 17:15:00,
2013-09-22 11:20:00,51.6,43.6,29.73,SSE,156,0.0,0.0,74,0.04,,---,0.04,VWS V14.01,2013-09-22 17:20:00,
2013-09-22 11:25:00,51.8,43.8,29.73,SSE,156,0.0,0.0,74,0.04,,---,0.04,VWS V14.01,2013-09-22 17:25:00,
2013-09-22 11:30:00,51.8,43.8,29.73,SSE,156,0.0,0.0,74,0.00,,---,0.04,VWS V14.01,2013-09-22 17:30:00,
2013-09-22 11:35:00,52.0,44.0,29.73,SSE,156,0.0,0.0,74,0.00,,---,0.04,VWS V14.01,2013-09-22 17:35:00,
2013-09-22 11:40:00,52.3,44.3,29.73,SSE,156,0.0,0.0,74,0.00,,---,0.04,VWS V14.01,2013-09-22 17:40:00,
2013-09-22 11:45:00,52.7,44.7,29.73,SSE,156,0.0,0.0,74,0.00,,---,0.04,VWS V14.01,2013-09-22 17:45:00,
2013-09-22 11:50:00,52.7,44.7,29.73,SSE,156,0.0,0.0,74,0.00,,---,0.04,VWS V14.01,2013-09-22 17:50:00,
2013-09-22 11:55:00,53.1,45.0,29.73,SSE,156,0.0,0.0,74,0.00,,---,0.04,VWS V14.01,2013-09-22 17:55:00,
2013-09-22 12:00:00,53.6,45.5,29.73,SE,135,2.7,2.7,74,0.00,,---,0.04,VWS V14.01,2013-09-22 18:00:00,
2013-09-22 12:05:00,54.3,46.6,29.73,SE,142,0.0,2.7,75,0.00,,---,0.04,VWS V14.01,2013-09-22 18:05:00,
2013-09-22 12:10:00,54.7,46.9,29.73,SE,131,0.0,2.7,75,0.00,,---,0.04,VWS V14.01,2013-09-22 18:10:00,
2013-09-22 12:15:00,54.9,47.1,29.73,SE,146,2.2,2.7,75,0.00,,---,0.04,VWS V14.01,2013-09-22 18:15:00,
2013-09-22 12:20:00,55.0,47.3,29.73,SSE,156,0.0,3.6,75,0.00,,---,0.04,VWS V14.01,2013-09-22 18:20:00,
2013-09-22 12:25:00,55.6,47.4,29.73,SE,139,0.0,3.6,74,0.00,,---,0.04,VWS V14.01,2013-09-22 18:25:00,
2013-09-22 12:30:00,55.9,47.8,29.73,SE,137,0.0,0.0,74,0.00,,---,0.04,VWS V14.01,2013-09-22 18:30:00,
2013-09-22 12:35:00,56.3,48.1,29.73,SE,126,0.0,0.0,74,0.00,,---,0.04,VWS V14.01,2013-09-22 18:35:00,
2013-09-22 12:40:00,56.3,48.1,29.73,ESE,118,0.0,3.1,74,0.00,,---,0.04,VWS V14.01,2013-09-22 18:40:00,
2013-09-22 12:45:00,56.7,48.5,29.73,SE,143,2.2,2.2,74,0.00,,---,0.04,VWS V14.01,2013-09-22 18:45:00,
2013-09-22 12:50:00,56.7,48.5,29.73,SE,133,2.2,3.1,74,0.00,,---,0.04,VWS V14.01,2013-09-22 18:50:00,
2013-09-22 12:55:00,56.7,48.1,29.70,SE,130,0.0,3.1,73,0.00,,---,0.04,VWS V14.01,2013-09-22 18:55:00,
2013-09-22 13:00:00,56.7,48.1,29.70,South,170,0.0,0.0,73,0.00,,---,0.04,VWS V14.01,2013-09-22 19:00:00,
2013-09-22 13:05:00,56.7,48.1,29.70,SSE,160,0.0,2.7,73,0.00,,---,0.04,VWS V14.01,2013-09-22 19:05:00,
2013-09-22 13:10:00,56.7,48.1,29.70,SSE,154,0.0,3.6,73,0.00,,---,0.04,VWS V14.01,2013-09-22 19:10:00,
2013-09-22 13:15:00,56.7,48.1,29.70,ESE,120,0.0,2.2,73,0.00,,---,0.04,VWS V14.01,2013-09-22 19:15:00,
2013-09-22 13:20:00,57.0,48.5,29.70,ESE,122,0.0,3.1,73,0.00,,---,0.04,VWS V14.01,2013-09-22 19:20:00,
2013-09-22 13:25:00,57.2,48.3,29.70,South,169,0.0,3.1,72,0.00,,---,0.04,VWS V14.01,2013-09-22 19:25:00,
2013-09-22 13:30:00,57.6,48.6,29.70,SE,131,2.7,2.7,72,0.00,,---,0.04,VWS V14.01,2013-09-22 19:30:00,
2013-09-22 13:35:00,57.6,48.2,29.70,SSE,158,0.0,3.1,71,0.00,,---,0.04,VWS V14.01,2013-09-22 19:35:00,
2013-09-22 13:40:00,57.7,48.4,29.70,SSE,157,0.0,3.6,71,0.00,,---,0.04,VWS V14.01,2013-09-22 19:40:00,
2013-09-22 13:45:00,58.1,48.8,29.70,SE,142,0.0,0.0,71,0.00,,---,0.04,VWS V14.01,2013-09-22 19:45:00,
2013-09-22 13:50:00,58.6,48.9,29.70,SE,136,0.0,0.0,70,0.00,,---,0.04,VWS V14.01,2013-09-22 19:50:00,
2013-09-22 13:55:00,59.2,49.4,29.70,SE,136,2.7,2.7,70,0.00,,---,0.04,VWS V14.01,2013-09-22 19:55:00,
2013-09-22 14:00:00,59.2,48.6,29.70,SE,139,2.7,2.7,68,0.00,,---,0.04,VWS V14.01,2013-09-22 20:00:00,
2013-09-22 14:05:00,59.7,49.2,29.70,SSE,165,2.7,3.6,68,0.00,,---,0.04,VWS V14.01,2013-09-22 20:05:00,
2013-09-22 14:10:00,59.7,48.4,29.70,South,175,0.0,4.0,66,0.00,,---,0.04,VWS V14.01,2013-09-22 20:10:00,
2013-09-22 14:15:00,59.4,46.8,29.70,SSE,156,3.1,3.1,63,0.00,,---,0.04,VWS V14.01,2013-09-22 20:15:00,
2013-09-22 14:20:00,59.0,45.2,29.70,SE,141,3.1,5.8,60,0.00,,---,0.04,VWS V14.01,2013-09-22 20:20:00,
2013-09-22 14:25:00,59.0,44.3,29.70,ESE,109,3.1,6.3,58,0.00,,---,0.04,VWS V14.01,2013-09-22 20:25:00,
2013-09-22 14:30:00,58.8,44.5,29.70,SSE,168,4.0,4.0,59,0.00,,---,0.04,VWS V14.01,2013-09-22 20:30:00,
2013-09-22 14:35:00,59.7,45.8,29.70,SSE,163,6.3,6.3,60,0.00,,---,0.04,VWS V14.01,2013-09-22 20:35:00,
2013-09-22 14:40:00,61.2,46.3,29.70,SSE,167,0.0,6.3,58,0.00,,---,0.04,VWS V14.01,2013-09-22 20:40:00,
2013-09-22 14:45:00,63.5,47.5,29.70,SE,138,3.1,5.4,56,0.00,,---,0.04,VWS V14.01,2013-09-22 20:45:00,
2013-09-22 14:50:00,65.3,46.7,29.70,ESE,109,2.2,5.4,51,0.00,,---,0.04,VWS V14.01,2013-09-22 20:50:00,
2013-09-22 14:55:00,66.2,41.2,29.67,East,81,6.3,6.3,40,0.00,,---,0.04,VWS V14.01,2013-09-22 20:55:00,
2013-09-22 15:00:00,65.8,44.5,29.67,East,84,3.1,3.1,46,0.00,,---,0.04,VWS V14.01,2013-09-22 21:00:00,
2013-09-22 15:05:00,65.1,42.1,29.67,SSE,151,2.2,4.9,43,0.00,,---,0.04,VWS V14.01,2013-09-22 21:05:00,
2013-09-22 15:10:00,63.7,40.8,29.67,SE,142,3.1,4.9,43,0.00,,---,0.04,VWS V14.01,2013-09-22 21:10:00,
2013-09-22 15:15:00,63.1,40.9,29.67,East,92,2.2,3.1,44,0.00,,---,0.04,VWS V14.01,2013-09-22 21:15:00,
2013-09-22 15:20:00,63.9,41.5,29.67,SSE,154,0.0,3.1,44,0.00,,---,0.04,VWS V14.01,2013-09-22 21:20:00,
2013-09-22 15:25:00,64.2,40.7,29.67,South,182,0.0,3.6,42,0.00,,---,0.04,VWS V14.01,2013-09-22 21:25:00,
2013-09-22 15:30:00,64.2,40.7,29.67,ESE,112,2.7,2.7,42,0.00,,---,0.04,VWS V14.01,2013-09-22 21:30:00,
2013-09-22 15:35:00,64.6,41.6,29.67,East,89,0.0,3.1,43,0.00,,---,0.04,VWS V14.01,2013-09-22 21:35:00,
2013-09-22 15:40:00,64.4,36.9,29.67,ESE,119,0.0,3.1,36,0.00,,---,0.04,VWS V14.01,2013-09-22 21:40:00,
2013-09-22 15:45:00,63.1,35.8,29.67,ESE,119,0.0,0.0,36,0.00,,---,0.04,VWS V14.01,2013-09-22 21:45:00,
2013-09-22 15:50:00,61.5,33.6,29.67,NE,54,0.0,0.0,35,0.00,,---,0.04,VWS V14.01,2013-09-22 21:50:00,
2013-09-22 15:55:00,60.4,34.1,29.67,NE,44,0.0,0.0,37,0.00,,---,0.04,VWS V14.01,2013-09-22 21:55:00,
2013-09-22 16:00:00,59.5,32.6,29.67,West,267,0.0,0.0,36,0.00,,---,0.04,VWS V14.01,2013-09-22 22:00:00,
2013-09-22 16:05:00,59.2,31.6,29.67,NE,52,0.0,0.0,35,0.00,,---,0.04,VWS V14.01,2013-09-22 22:05:00,
2013-09-22 16:10:00,58.8,31.2,29.67,NNW,338,0.0,4.9,35,0.00,,---,0.04,VWS V14.01,2013-09-22 22:10:00,
2013-09-22 16:15:00,58.5,30.9,29.67,SW,223,0.0,0.0,35,0.00,,---,0.04,VWS V14.01,2013-09-22 22:15:00,
2013-09-22 16:20:00,58.5,31.6,29.67,WSW,253,0.0,0.0,36,0.00,,---,0.04,VWS V14.01,2013-09-22 22:20:00,
2013-09-22 16:25:00,58.3,31.5,29.67,NW,304,0.0,0.0,36,0.00,,---,0.04,VWS V14.01,2013-09-22 22:25:00,
2013-09-22 16:30:00,57.6,30.1,29.67,NW,324,0.0,0.0,35,0.00,,---,0.04,VWS V14.01,2013-09-22 22:30:00,
2013-09-22 16:35:00,56.7,30.7,29.67,East,93,0.0,0.0,37,0.00,,---,0.04,VWS V14.01,2013-09-22 22:35:00,
2013-09-22 16:40:00,55.2,30.7,29.67,East,93,0.0,0.0,39,0.00,,---,0.04,VWS V14.01,2013-09-22 22:40:00,
2013-09-22 16:45:00,54.0,30.8,29.67,East,93,0.0,0.0,41,0.00,,---,0.04,VWS V14.01,2013-09-22 22:45:00,
2013-09-22 16:50:00,53.2,33.5,29.67,East,93,0.0,0.0,47,0.00,,---,0.04,VWS V14.01,2013-09-22 22:50:00,
2013-09-22 16:55:00,53.1,34.4,29.70,ENE,75,0.0,0.0,49,0.00,,---,0.04,VWS V14.01,2013-09-22 22:55:00,
2013-09-22 17:00:00,52.9,32.1,29.70,NW,314,0.0,0.0,45,0.00,,---,0.04,VWS V14.01,2013-09-22 23:00:00,
2013-09-22 17:05:00,53.8,30.6,29.70,NW,309,2.7,3.1,41,0.00,,---,0.04,VWS V14.01,2013-09-22 23:05:00,
2013-09-22 17:10:00,55.0,29.9,29.70,West,280,0.0,3.6,38,0.00,,---,0.04,VWS V14.01,2013-09-22 23:10:00,
2013-09-22 17:15:00,55.4,29.6,29.70,NNW,341,0.0,0.0,37,0.00,,---,0.04,VWS V14.01,2013-09-22 23:15:00,
2013-09-22 17:20:00,55.8,29.2,29.70,WSW,241,0.0,2.7,36,0.00,,---,0.04,VWS V14.01,2013-09-22 23:20:00,
2013-09-22 17:25:00,56.1,29.5,29.70,WNW,298,0.0,4.9,36,0.00,,---,0.04,VWS V14.01,2013-09-22 23:25:00,
2013-09-22 17:30:00,56.7,30.0,29.70,West,263,0.0,0.0,36,0.00,,---,0.04,VWS V14.01,2013-09-22 23:30:00,
2013-09-22 17:35:00,56.8,30.2,29.70,SSE,156,3.1,3.6,36,0.00,,---,0.04,VWS V14.01,2013-09-22 23:35:00,
2013-09-22 17:40:00,56.5,30.5,29.70,ESE,123,3.6,3.6,37,0.00,,---,0.04,VWS V14.01,2013-09-22 23:40:00,
2013-09-22 17:45:00,55.9,30.1,29.70,East,86,4.0,4.0,37,0.00,,---,0.04,VWS V14.01,2013-09-22 23:45:00,
2013-09-22 17:50:00,55.8,30.6,29.70,East,84,6.3,6.3,38,0.00,,---,0.04,VWS V14.01,2013-09-22 23:50:00,
2013-09-22 17:55:00,55.8,31.8,29.70,NE,52,3.6,6.7,40,0.00,,---,0.04,VWS V14.01,2013-09-22 23:55:00,
2013-09-22 18:00:00,55.8,32.4,29.70,ENE,76,0.0,3.6,41,0.00,,---,0.04,VWS V14.01,2013-09-23 00:00:00,
2013-09-22 18:05:00,55.9,32.6,29.70,East,95,4.0,5.4,41,0.00,,---,0.04,VWS V14.01,2013-09-23 00:05:00,
2013-09-22 18:10:00,56.3,32.9,29.73,ENE,60,3.1,5.4,41,0.00,,---,0.04,VWS V14.01,2013-09-23 00:10:00,
2013-09-22 18:16:00,56.3,33.5,29.73,East,94,4.9,6.3,42,0.00,,---,0.04,VWS V14.01,2013-09-23 00:16:00,
2013-09-22 18:21:00,56.5,33.7,29.73,East,94,0.0,6.3,42,0.00,,---,0.04,VWS V14.01,2013-09-23 00:21:00,
2013-09-22 18:26:00,56.8,34.0,29.73,East,101,4.0,6.3,42,0.00,,---,0.04,VWS V14.01,2013-09-23 00:26:00,
2013-09-22 18:31:00,56.8,34.0,29.73,ESE,102,3.6,3.6,42,0.00,,---,0.04,VWS V14.01,2013-09-23 00:31:00,
2013-09-22 18:36:00,57.0,33.6,29.73,East,93,5.4,5.4,41,0.00,,---,0.04,VWS V14.01,2013-09-23 00:36:00,
2013-09-22 18:41:00,56.8,33.4,29.73,ENE,67,4.9,6.3,41,0.00,,---,0.04,VWS V14.01,2013-09-23 00:41:00,
2013-09-22 18:46:00,56.7,33.2,29.73,East,86,3.1,4.0,41,0.00,,---,0.04,VWS V14.01,2013-09-23 00:46:00,
2013-09-22 18:51:00,56.5,32.5,29.73,East,100,4.0,5.4,40,0.00,,---,0.04,VWS V14.01,2013-09-23 00:51:00,
2013-09-22 18:56:00,56.3,32.3,29.73,East,83,2.7,5.4,40,0.00,,---,0.04,VWS V14.01,2013-09-23 00:56:00,
2013-09-22 19:01:00,55.9,32.6,29.73,East,99,0.0,3.1,41,0.00,,---,0.04,VWS V14.01,2013-09-23 01:01:00,
2013-09-22 19:06:00,55.6,32.3,29.73,East,91,0.0,3.1,41,0.00,,---,0.04,VWS V14.01,2013-09-23 01:06:00,
2013-09-22 19:11:00,55.2,33.1,29.73,East,91,0.0,3.1,43,0.00,,---,0.04,VWS V14.01,2013-09-23 01:11:00,
2013-09-22 19:16:00,55.0,33.0,29.73,East,91,0.0,0.0,43,0.00,,---,0.04,VWS V14.01,2013-09-23 01:16:00,
2013-09-22 19:21:00,54.7,33.2,29.73,East,91,0.0,0.0,44,0.00,,---,0.04,VWS V14.01,2013-09-23 01:21:00,
2013-09-22 19:26:00,54.1,33.3,29.73,East,91,0.0,0.0,45,0.00,,---,0.04,VWS V14.01,2013-09-23 01:26:00,
2013-09-22 19:31:00,53.6,33.3,29.73,East,91,0.0,0.0,46,0.00,,---,0.04,VWS V14.01,2013-09-23 01:31:00,
2013-09-22 19:36:00,52.5,32.9,29.73,East,91,0.0,0.0,47,0.00,,---,0.04,VWS V14.01,2013-09-23 01:36:00,
2013-09-22 19:41:00,51.6,32.6,29.73,East,91,0.0,0.0,48,0.00,,---,0.04,VWS V14.01,2013-09-23 01:41:00,
2013-09-22 19:46:00,51.3,33.3,29.73,East,91,0.0,0.0,50,0.00,,---,0.04,VWS V14.01,2013-09-23 01:46:00,
2013-09-22 19:51:00,51.1,33.1,29.73,East,91,0.0,0.0,50,0.00,,---,0.04,VWS V14.01,2013-09-23 01:51:00,
2013-09-22 19:56:00,50.9,32.9,29.73,East,91,0.0,0.0,50,0.00,,---,0.04,VWS V14.01,2013-09-23 01:56:00,
2013-09-22 20:01:00,50.9,33.4,29.73,East,91,0.0,0.0,51,0.00,,---,0.04,VWS V14.01,2013-09-23 02:01:00,
2013-09-22 20:06:00,50.5,33.1,29.73,East,91,0.0,0.0,51,0.00,,---,0.04,VWS V14.01,2013-09-23 02:06:00,
2013-09-22 20:11:00,50.4,33.4,29.73,East,84,0.0,0.0,52,0.00,,---,0.04,VWS V14.01,2013-09-23 02:11:00,
2013-09-22 20:16:00,50.4,33.4,29.73,South,176,0.0,0.0,52,0.00,,---,0.04,VWS V14.01,2013-09-23 02:16:00,
2013-09-22 20:21:00,50.4,33.9,29.73,SSW,194,0.0,2.2,53,0.00,,---,0.04,VWS V14.01,2013-09-23 02:21:00,
2013-09-22 20:26:00,50.5,34.5,29.73,SSW,200,0.0,2.2,54,0.00,,---,0.04,VWS V14.01,2013-09-23 02:26:00,
2013-09-22 20:31:00,50.7,35.2,29.73,SSW,199,0.0,0.0,55,0.00,,---,0.04,VWS V14.01,2013-09-23 02:31:00,
2013-09-22 20:36:00,50.7,34.7,29.73,SSW,199,0.0,0.0,54,0.00,,---,0.04,VWS V14.01,2013-09-23 02:36:00,
2013-09-22 20:41:00,50.7,35.2,29.73,SSW,199,0.0,0.0,55,0.00,,---,0.04,VWS V14.01,2013-09-23 02:41:00,
2013-09-22 20:46:00,50.7,35.2,29.73,SSW,194,0.0,0.0,55,0.00,,---,0.04,VWS V14.01,2013-09-23 02:46:00,
2013-09-22 20:51:00,50.7,35.2,29.73,SSW,194,0.0,0.0,55,0.00,,---,0.04,VWS V14.01,2013-09-23 02:51:00,
2013-09-22 20:56:00,50.4,34.8,29.73,SSE,156,0.0,0.0,55,0.00,,---,0.04,VWS V14.01,2013-09-23 02:56:00,
2013-09-22 21:01:00,50.0,34.9,29.73,SSE,156,0.0,0.0,56,0.00,,---,0.04,VWS V14.01,2013-09-23 03:01:00,
2013-09-22 21:06:00,49.6,35.0,29.73,SSE,156,0.0,0.0,57,0.00,,---,0.04,VWS V14.01,2013-09-23 03:06:00,
2013-09-22 21:11:00,49.3,34.7,29.73,SSE,156,0.0,0.0,57,0.00,,---,0.04,VWS V14.01,2013-09-23 03:11:00,
2013-09-22 21:16:00,49.1,34.5,29.73,SSE,157,0.0,0.0,57,0.00,,---,0.04,VWS V14.01,2013-09-23 03:16:00,
2013-09-22 21:21:00,48.9,34.8,29.73,SSE,156,0.0,0.0,58,0.00,,---,0.04,VWS V14.01,2013-09-23 03:21:00,
2013-09-22 21:26:00,48.7,34.2,29.73,SSE,156,0.0,0.0,57,0.00,,---,0.04,VWS V14.01,2013-09-23 03:26:00,
2013-09-22 21:30:00,48.4,34.3,29.73,SSE,156,0.0,0.0,58,0.00,,---,0.04,VWS V14.01,2013-09-23 03:30:00,
2013-09-22 21:35:00,48.2,34.1,29.73,SSE,156,0.0,0.0,58,0.00,,---,0.04,VWS V14.01,2013-09-23 03:35:00,
2013-09-22 21:40:00,48.2,34.6,29.73,SSE,156,0.0,0.0,59,0.00,,---,0.04,VWS V14.01,2013-09-23 03:40:00,
2013-09-22 21:45:00,48.4,34.7,29.73,SSE,156,0.0,0.0,59,0.00,,---,0.04,VWS V14.01,2013-09-23 03:45:00,
2013-09-22 21:50:00,48.6,35.3,29.73,SSW,192,0.0,0.0,60,0.00,,---,0.04,VWS V14.01,2013-09-23 03:50:00,
2013-09-22 21:55:00,48.9,35.7,29.73,SSW,192,0.0,0.0,60,0.00,,---,0.04,VWS V14.01,2013-09-23 03:55:00,
2013-09-22 22:00:00,49.3,36.4,29.73,SSW,212,4.0,4.0,61,0.00,,---,0.04,VWS V14.01,2013-09-23 04:00:00,
2013-09-22 22:01:00,49.3,36.4,29.73,SSW,212,4.0,4.0,61,0.00,,---,0.04,VWS V14.01,2013-09-23 04:01:00,
2013-09-22 22:02:00,49.5,36.6,29.73,SSW,204,2.7,4.0,61,0.00,,---,0.04,VWS V14.01,2013-09-23 04:02:00,
2013-09-22 22:07:00,50.4,37.0,29.73,SSE,167,0.0,4.5,60,0.00,,---,0.04,VWS V14.01,2013-09-23 04:07:00,
2013-09-22 22:12:00,50.7,36.9,29.73,WSW,246,2.7,4.5,59,0.00,,---,0.04,VWS V14.01,2013-09-23 04:12:00,
2013-09-22 22:17:00,50.7,36.1,29.73,SSW,209,3.6,5.8,57,0.00,,---,0.04,VWS V14.01,2013-09-23 04:17:00,
2013-09-22 22:22:00,50.9,35.8,29.73,SSW,211,3.6,5.8,56,0.00,,---,0.04,VWS V14.01,2013-09-23 04:22:00,
2013-09-22 22:27:00,50.7,35.6,29.73,SSW,199,2.7,5.8,56,0.00,,---,0.04,VWS V14.01,2013-09-23 04:27:00,
2013-09-22 22:32:00,50.5,35.4,29.73,South,191,3.1,3.1,56,0.00,,---,0.04,VWS V14.01,2013-09-23 04:32:00,
2013-09-22 22:37:00,50.4,35.3,29.73,SSW,197,0.0,3.1,56,0.00,,---,0.04,VWS V14.01,2013-09-23 04:37:00,
2013-09-22 22:42:00,50.2,35.1,29.73,SSW,206,0.0,3.1,56,0.00,,---,0.04,VWS V14.01,2013-09-23 04:42:00,
2013-09-22 22:47:00,50.2,34.7,29.73,SSW,206,0.0,0.0,55,0.00,,---,0.04,VWS V14.01,2013-09-23 04:47:00,
2013-09-22 22:52:00,50.2,34.7,29.73,SSW,206,0.0,0.0,55,0.00,,---,0.04,VWS V14.01,2013-09-23 04:52:00,
2013-09-22 22:57:00,50.0,34.5,29.73,SSW,206,0.0,0.0,55,0.00,,---,0.04,VWS V14.01,2013-09-23 04:57:00,
2013-09-22 23:02:00,50.0,34.5,29.73,SSW,206,0.0,0.0,55,0.00,,---,0.04,VWS V14.01,2013-09-23 05:02:00,
2013-09-22 23:07:00,50.0,34.5,29.73,SSW,206,0.0,0.0,55,0.00,,---,0.04,VWS V14.01,2013-09-23 05:07:00,
2013-09-22 23:12:00,49.5,34.0,29.73,SSW,206,0.0,0.0,55,0.00,,---,0.04,VWS V14.01,2013-09-23 05:12:00,
2013-09-22 23:17:00,49.1,33.7,29.73,SSW,206,0.0,0.0,55,0.00,,---,0.04,VWS V14.01,2013-09-23 05:17:00,
2013-09-22 23:22:00,49.1,34.1,29.73,SSW,206,0.0,0.0,56,0.00,,---,0.04,VWS V14.01,2013-09-23 05:22:00,
2013-09-22 23:27:00,48.9,33.9,29.73,ENE,73,2.2,3.6,56,0.00,,---,0.04,VWS V14.01,2013-09-23 05:27:00,
2013-09-22 23:32:00,48.9,34.4,29.73,East,95,0.0,2.7,57,0.00,,---,0.04,VWS V14.01,2013-09-23 05:32:00,
2013-09-22 23:37:00,48.7,34.2,29.73,East,95,0.0,2.7,57,0.00,,---,0.04,VWS V14.01,2013-09-23 05:37:00,
2013-09-22 23:42:00,48.7,34.2,29.73,SSE,167,0.0,4.9,57,0.00,,---,0.04,VWS V14.01,2013-09-23 05:42:00,
2013-09-22 23:47:00,48.6,34.5,29.73,WSW,245,0.0,0.0,58,0.00,,---,0.04,VWS V14.01,2013-09-23 05:47:00,
2013-09-22 23:52:00,48.4,34.3,29.73,SSW,199,0.0,0.0,58,0.00,,---,0.04,VWS V14.01,2013-09-23 05:52:00,
2013-09-22 23:57:00,48.4,34.7,29.73,SW,221,0.0,0.0,59,0.00,,---,0.04,VWS V14.01,2013-09-23 05:57:00,